sensor_id;sensor_type;location;lat;lon;timestamp;temperature;humidity
19878;DHT22;10101;52.204;9.910;2022-08-19T00:00:05;19.20;99.90
19878;DHT22;10101;52.204;9.910;2022-08-19T00:02:32;19.20;99.90
19878;DHT22;10101;52.204;9.910;2022-08-19T00:05:02;19.20;99.90
19878;DHT22;10101;52.204;9.910;2022-08-19T00:07:29;19.20;99.90
19878;DHT22;10101;52.204;9.910;2022-08-19T00:09:55;19.20;99.90
19878;DHT22;10101;52.204;9.910;2022-08-19T00:12:22;19.10;99.90
19878;DHT22;10101;52.204;9.910;2022-08-19T00:14:49;19.10;99.90
19878;DHT22;10101;52.204;9.910;2022-08-19T00:17:16;19.00;99.90
19878;DHT22;10101;52.204;9.910;2022-08-19T00:19:43;18.90;99.90
19878;DHT22;10101;52.204;9.910;2022-08-19T00:22:11;18.90;99.90
19878;DHT22;10101;52.204;9.910;2022-08-19T00:24:38;18.90;99.90
19878;DHT22;10101;52.204;9.910;2022-08-19T00:27:06;18.80;99.90
19878;DHT22;10101;52.204;9.910;2022-08-19T00:29:33;18.80;99.90
19878;DHT22;10101;52.204;9.910;2022-08-19T00:32:00;18.80;99.90
19878;DHT22;10101;52.204;9.910;2022-08-19T00:34:27;18.70;99.90
19878;DHT22;10101;52.204;9.910;2022-08-19T00:36:54;18.70;99.90
19878;DHT22;10101;52.204;9.910;2022-08-19T00:39:23;18.70;99.90
19878;DHT22;10101;52.204;9.910;2022-08-19T00:41:50;18.60;99.90
19878;DHT22;10101;52.204;9.910;2022-08-19T00:44:20;18.70;99.90
19878;DHT22;10101;52.204;9.910;2022-08-19T00:46:49;18.60;99.90
19878;DHT22;10101;52.204;9.910;2022-08-19T00:49:19;18.70;99.90
19878;DHT22;10101;52.204;9.910;2022-08-19T00:51:50;18.50;99.90
19878;DHT22;10101;52.204;9.910;2022-08-19T00:54:18;18.60;99.90
19878;DHT22;10101;52.204;9.910;2022-08-19T00:56:48;18.50;99.90
19878;DHT22;10101;52.204;9.910;2022-08-19T00:59:18;18.50;99.90
19878;DHT22;10101;52.204;9.910;2022-08-19T01:01:46;18.50;99.90
19878;DHT22;10101;52.204;9.910;2022-08-19T01:04:13;18.40;99.90
19878;DHT22;10101;52.204;9.910;2022-08-19T01:06:40;18.50;99.90
19878;DHT22;10101;52.204;9.910;2022-08-19T01:09:08;18.40;99.90
19878;DHT22;10101;52.204;9.910;2022-08-19T01:11:42;18.40;99.90
19878;DHT22;10101;52.204;9.910;2022-08-19T01:14:11;18.40;99.90
19878;DHT22;10101;52.204;9.910;2022-08-19T01:16:40;18.40;99.90
19878;DHT22;10101;52.204;9.910;2022-08-19T01:19:12;18.40;99.90
19878;DHT22;10101;52.204;9.910;2022-08-19T01:21:45;18.40;99.90
19878;DHT22;10101;52.204;9.910;2022-08-19T01:24:15;18.30;99.90
19878;DHT22;10101;52.204;9.910;2022-08-19T01:26:43;18.30;99.90
19878;DHT22;10101;52.204;9.910;2022-08-19T01:29:10;18.30;99.90
19878;DHT22;10101;52.204;9.910;2022-08-19T01:31:38;18.20;99.90
19878;DHT22;10101;52.204;9.910;2022-08-19T01:34:06;18.20;99.90
19878;DHT22;10101;52.204;9.910;2022-08-19T01:36:36;18.20;99.90
19878;DHT22;10101;52.204;9.910;2022-08-19T01:39:07;18.20;99.90
19878;DHT22;10101;52.204;9.910;2022-08-19T01:41:36;18.10;99.90
19878;DHT22;10101;52.204;9.910;2022-08-19T01:44:04;18.10;99.90
19878;DHT22;10101;52.204;9.910;2022-08-19T01:46:31;18.10;99.90
19878;DHT22;10101;52.204;9.910;2022-08-19T01:48:58;18.10;99.90
19878;DHT22;10101;52.204;9.910;2022-08-19T01:51:26;18.00;99.90
19878;DHT22;10101;52.204;9.910;2022-08-19T01:53:53;18.10;99.90
19878;DHT22;10101;52.204;9.910;2022-08-19T01:56:21;18.10;99.90
19878;DHT22;10101;52.204;9.910;2022-08-19T01:58:52;18.10;99.90
19878;DHT22;10101;52.204;9.910;2022-08-19T02:01:20;18.10;99.90
19878;DHT22;10101;52.204;9.910;2022-08-19T02:03:47;18.00;99.90
19878;DHT22;10101;52.204;9.910;2022-08-19T02:06:14;18.00;99.90
19878;DHT22;10101;52.204;9.910;2022-08-19T02:08:43;18.00;99.90
19878;DHT22;10101;52.204;9.910;2022-08-19T02:11:18;18.10;99.90
19878;DHT22;10101;52.204;9.910;2022-08-19T02:13:46;18.00;99.90
19878;DHT22;10101;52.204;9.910;2022-08-19T02:16:14;18.00;99.90
19878;DHT22;10101;52.204;9.910;2022-08-19T02:18:41;18.00;99.90
19878;DHT22;10101;52.204;9.910;2022-08-19T02:21:08;18.20;99.90
19878;DHT22;10101;52.204;9.910;2022-08-19T02:23:35;17.90;99.90
19878;DHT22;10101;52.204;9.910;2022-08-19T02:26:01;18.10;99.90
19878;DHT22;10101;52.204;9.910;2022-08-19T02:28:28;17.90;99.90
19878;DHT22;10101;52.204;9.910;2022-08-19T02:30:55;17.90;99.90
19878;DHT22;10101;52.204;9.910;2022-08-19T02:33:23;17.90;99.90
19878;DHT22;10101;52.204;9.910;2022-08-19T02:35:50;17.90;99.90
19878;DHT22;10101;52.204;9.910;2022-08-19T02:38:17;17.90;99.90
19878;DHT22;10101;52.204;9.910;2022-08-19T02:40:53;17.90;99.90
19878;DHT22;10101;52.204;9.910;2022-08-19T02:43:21;17.90;99.90
19878;DHT22;10101;52.204;9.910;2022-08-19T02:45:49;17.80;99.90
19878;DHT22;10101;52.204;9.910;2022-08-19T02:48:17;17.90;99.90
19878;DHT22;10101;52.204;9.910;2022-08-19T02:50:46;17.90;99.90
19878;DHT22;10101;52.204;9.910;2022-08-19T02:53:13;17.80;99.90
19878;DHT22;10101;52.204;9.910;2022-08-19T02:55:44;17.80;99.90
19878;DHT22;10101;52.204;9.910;2022-08-19T02:58:11;17.80;99.90
19878;DHT22;10101;52.204;9.910;2022-08-19T03:00:42;17.80;99.90
19878;DHT22;10101;52.204;9.910;2022-08-19T03:03:10;17.80;99.90
19878;DHT22;10101;52.204;9.910;2022-08-19T03:05:37;17.80;99.90
19878;DHT22;10101;52.204;9.910;2022-08-19T03:08:05;17.80;99.90
19878;DHT22;10101;52.204;9.910;2022-08-19T03:10:32;17.80;99.90
19878;DHT22;10101;52.204;9.910;2022-08-19T03:12:58;17.80;99.90
19878;DHT22;10101;52.204;9.910;2022-08-19T03:15:25;17.80;99.90
19878;DHT22;10101;52.204;9.910;2022-08-19T03:17:52;17.80;99.90
19878;DHT22;10101;52.204;9.910;2022-08-19T03:20:19;17.80;99.90
19878;DHT22;10101;52.204;9.910;2022-08-19T03:22:46;17.80;99.90
19878;DHT22;10101;52.204;9.910;2022-08-19T03:25:14;17.70;99.90
19878;DHT22;10101;52.204;9.910;2022-08-19T03:27:42;17.80;99.90
19878;DHT22;10101;52.204;9.910;2022-08-19T03:30:10;17.80;99.90
19878;DHT22;10101;52.204;9.910;2022-08-19T03:32:37;17.90;99.90
19878;DHT22;10101;52.204;9.910;2022-08-19T03:35:04;17.80;99.90
19878;DHT22;10101;52.204;9.910;2022-08-19T03:37:31;17.80;99.90
19878;DHT22;10101;52.204;9.910;2022-08-19T03:39:58;17.80;99.90
19878;DHT22;10101;52.204;9.910;2022-08-19T03:42:27;17.80;99.90
19878;DHT22;10101;52.204;9.910;2022-08-19T03:44:54;17.70;99.90
19878;DHT22;10101;52.204;9.910;2022-08-19T03:47:20;17.70;99.90
19878;DHT22;10101;52.204;9.910;2022-08-19T03:49:47;17.70;99.90
19878;DHT22;10101;52.204;9.910;2022-08-19T03:52:14;17.70;99.90
19878;DHT22;10101;52.204;9.910;2022-08-19T03:54:41;17.70;99.90
19878;DHT22;10101;52.204;9.910;2022-08-19T03:57:08;17.80;99.90
19878;DHT22;10101;52.204;9.910;2022-08-19T03:59:38;17.80;99.90
19878;DHT22;10101;52.204;9.910;2022-08-19T04:02:08;17.80;99.90
19878;DHT22;10101;52.204;9.910;2022-08-19T04:04:36;17.70;99.90
19878;DHT22;10101;52.204;9.910;2022-08-19T04:07:03;17.70;99.90
19878;DHT22;10101;52.204;9.910;2022-08-19T04:09:30;17.80;99.90
19878;DHT22;10101;52.204;9.910;2022-08-19T04:11:57;17.80;99.90
19878;DHT22;10101;52.204;9.910;2022-08-19T04:14:26;17.70;99.90
19878;DHT22;10101;52.204;9.910;2022-08-19T04:16:57;17.80;99.90
19878;DHT22;10101;52.204;9.910;2022-08-19T04:19:25;17.80;99.90
19878;DHT22;10101;52.204;9.910;2022-08-19T04:21:53;17.70;99.90
19878;DHT22;10101;52.204;9.910;2022-08-19T04:24:21;17.70;99.90
19878;DHT22;10101;52.204;9.910;2022-08-19T04:26:48;17.70;99.90
19878;DHT22;10101;52.204;9.910;2022-08-19T04:29:17;17.80;99.90
19878;DHT22;10101;52.204;9.910;2022-08-19T04:31:47;17.70;99.90
19878;DHT22;10101;52.204;9.910;2022-08-19T04:34:16;17.70;99.90
19878;DHT22;10101;52.204;9.910;2022-08-19T04:36:44;17.70;99.90
19878;DHT22;10101;52.204;9.910;2022-08-19T04:39:13;17.70;99.90
19878;DHT22;10101;52.204;9.910;2022-08-19T04:41:41;17.70;99.90
19878;DHT22;10101;52.204;9.910;2022-08-19T04:44:25;17.70;99.90
19878;DHT22;10101;52.204;9.910;2022-08-19T04:46:56;17.70;99.90
19878;DHT22;10101;52.204;9.910;2022-08-19T04:49:25;17.70;99.90
19878;DHT22;10101;52.204;9.910;2022-08-19T04:51:53;17.70;99.90
19878;DHT22;10101;52.204;9.910;2022-08-19T04:54:21;17.70;99.90
19878;DHT22;10101;52.204;9.910;2022-08-19T04:56:49;17.70;99.90
19878;DHT22;10101;52.204;9.910;2022-08-19T04:59:16;17.70;99.90
19878;DHT22;10101;52.204;9.910;2022-08-19T05:01:44;17.80;99.90
19878;DHT22;10101;52.204;9.910;2022-08-19T05:04:15;17.70;99.90
19878;DHT22;10101;52.204;9.910;2022-08-19T05:06:45;17.70;99.90
19878;DHT22;10101;52.204;9.910;2022-08-19T05:09:12;17.60;99.90
19878;DHT22;10101;52.204;9.910;2022-08-19T05:11:39;17.60;99.90
19878;DHT22;10101;52.204;9.910;2022-08-19T05:14:07;17.60;99.90
19878;DHT22;10101;52.204;9.910;2022-08-19T05:16:34;17.60;99.90
19878;DHT22;10101;52.204;9.910;2022-08-19T05:19:01;17.70;99.90
19878;DHT22;10101;52.204;9.910;2022-08-19T05:21:46;17.70;99.90
19878;DHT22;10101;52.204;9.910;2022-08-19T05:24:31;17.60;99.90
19878;DHT22;10101;52.204;9.910;2022-08-19T05:27:00;17.60;99.90
19878;DHT22;10101;52.204;9.910;2022-08-19T05:29:29;17.60;99.90
19878;DHT22;10101;52.204;9.910;2022-08-19T05:31:58;17.60;99.90
19878;DHT22;10101;52.204;9.910;2022-08-19T05:34:26;17.60;99.90
19878;DHT22;10101;52.204;9.910;2022-08-19T05:36:56;17.60;99.90
19878;DHT22;10101;52.204;9.910;2022-08-19T05:39:26;17.70;99.90
19878;DHT22;10101;52.204;9.910;2022-08-19T05:41:55;17.60;99.90
19878;DHT22;10101;52.204;9.910;2022-08-19T05:44:24;17.60;99.90
19878;DHT22;10101;52.204;9.910;2022-08-19T05:46:51;17.70;99.90
19878;DHT22;10101;52.204;9.910;2022-08-19T05:49:21;17.70;99.90
19878;DHT22;10101;52.204;9.910;2022-08-19T05:51:48;17.70;99.90
19878;DHT22;10101;52.204;9.910;2022-08-19T05:54:17;17.80;99.90
19878;DHT22;10101;52.204;9.910;2022-08-19T05:56:45;17.80;99.90
19878;DHT22;10101;52.204;9.910;2022-08-19T05:59:14;17.80;99.90
19878;DHT22;10101;52.204;9.910;2022-08-19T06:01:43;17.90;99.90
19878;DHT22;10101;52.204;9.910;2022-08-19T06:04:12;17.70;99.90
19878;DHT22;10101;52.204;9.910;2022-08-19T06:06:40;17.60;99.90
19878;DHT22;10101;52.204;9.910;2022-08-19T06:09:07;17.70;99.90
19878;DHT22;10101;52.204;9.910;2022-08-19T06:11:39;17.60;99.90
19878;DHT22;10101;52.204;9.910;2022-08-19T06:14:09;17.70;99.90
19878;DHT22;10101;52.204;9.910;2022-08-19T06:16:38;17.60;99.90
19878;DHT22;10101;52.204;9.910;2022-08-19T06:19:08;17.50;99.90
19878;DHT22;10101;52.204;9.910;2022-08-19T06:21:36;17.60;99.90
19878;DHT22;10101;52.204;9.910;2022-08-19T06:24:05;17.50;99.90
19878;DHT22;10101;52.204;9.910;2022-08-19T06:26:33;17.60;99.90
19878;DHT22;10101;52.204;9.910;2022-08-19T06:29:03;17.60;99.90
19878;DHT22;10101;52.204;9.910;2022-08-19T06:31:32;17.60;99.90
19878;DHT22;10101;52.204;9.910;2022-08-19T06:34:00;17.60;99.90
19878;DHT22;10101;52.204;9.910;2022-08-19T06:36:33;17.60;99.90
19878;DHT22;10101;52.204;9.910;2022-08-19T06:39:00;17.50;99.90
19878;DHT22;10101;52.204;9.910;2022-08-19T06:41:28;17.60;99.90
19878;DHT22;10101;52.204;9.910;2022-08-19T06:43:56;17.60;99.90
19878;DHT22;10101;52.204;9.910;2022-08-19T06:46:25;17.60;99.90
19878;DHT22;10101;52.204;9.910;2022-08-19T06:48:52;17.70;99.90
19878;DHT22;10101;52.204;9.910;2022-08-19T06:51:21;17.70;99.90
19878;DHT22;10101;52.204;9.910;2022-08-19T06:53:53;17.70;99.90
19878;DHT22;10101;52.204;9.910;2022-08-19T06:56:24;17.70;99.90
19878;DHT22;10101;52.204;9.910;2022-08-19T06:58:56;17.80;99.90
19878;DHT22;10101;52.204;9.910;2022-08-19T07:01:25;17.80;99.90
19878;DHT22;10101;52.204;9.910;2022-08-19T07:03:52;17.80;99.90
19878;DHT22;10101;52.204;9.910;2022-08-19T07:06:19;17.80;99.90
19878;DHT22;10101;52.204;9.910;2022-08-19T07:08:47;18.00;99.90
19878;DHT22;10101;52.204;9.910;2022-08-19T07:11:16;18.10;99.90
19878;DHT22;10101;52.204;9.910;2022-08-19T07:13:45;18.10;99.90
19878;DHT22;10101;52.204;9.910;2022-08-19T07:16:16;18.10;99.90
19878;DHT22;10101;52.204;9.910;2022-08-19T07:18:46;18.20;99.90
19878;DHT22;10101;52.204;9.910;2022-08-19T07:21:16;18.50;99.90
19878;DHT22;10101;52.204;9.910;2022-08-19T07:23:44;18.60;99.90
19878;DHT22;10101;52.204;9.910;2022-08-19T07:26:13;18.60;99.90
19878;DHT22;10101;52.204;9.910;2022-08-19T07:28:41;18.60;99.90
19878;DHT22;10101;52.204;9.910;2022-08-19T07:31:11;18.60;99.90
19878;DHT22;10101;52.204;9.910;2022-08-19T07:33:39;18.60;99.90
19878;DHT22;10101;52.204;9.910;2022-08-19T07:36:09;18.70;99.90
19878;DHT22;10101;52.204;9.910;2022-08-19T07:38:38;18.70;99.90
19878;DHT22;10101;52.204;9.910;2022-08-19T07:41:06;18.70;99.90
19878;DHT22;10101;52.204;9.910;2022-08-19T07:43:33;18.90;99.90
19878;DHT22;10101;52.204;9.910;2022-08-19T07:46:00;18.80;99.90
19878;DHT22;10101;52.204;9.910;2022-08-19T07:48:28;18.80;99.90
19878;DHT22;10101;52.204;9.910;2022-08-19T07:50:56;18.90;99.90
19878;DHT22;10101;52.204;9.910;2022-08-19T07:53:28;19.10;99.90
19878;DHT22;10101;52.204;9.910;2022-08-19T07:55:55;19.00;99.90
19878;DHT22;10101;52.204;9.910;2022-08-19T07:58:23;19.00;99.90
19878;DHT22;10101;52.204;9.910;2022-08-19T08:00:51;19.00;99.90
19878;DHT22;10101;52.204;9.910;2022-08-19T08:03:20;19.10;99.90
19878;DHT22;10101;52.204;9.910;2022-08-19T08:06:07;19.20;99.90
19878;DHT22;10101;52.204;9.910;2022-08-19T08:08:53;19.00;99.90
19878;DHT22;10101;52.204;9.910;2022-08-19T08:11:44;18.90;99.90
19878;DHT22;10101;52.204;9.910;2022-08-19T08:14:15;19.10;99.90
19878;DHT22;10101;52.204;9.910;2022-08-19T08:16:42;19.20;99.90
19878;DHT22;10101;52.204;9.910;2022-08-19T08:19:11;19.20;99.90
19878;DHT22;10101;52.204;9.910;2022-08-19T08:21:40;19.20;99.90
19878;DHT22;10101;52.204;9.910;2022-08-19T08:24:09;19.30;99.90
19878;DHT22;10101;52.204;9.910;2022-08-19T08:26:36;19.40;99.90
19878;DHT22;10101;52.204;9.910;2022-08-19T08:29:03;19.40;99.90
19878;DHT22;10101;52.204;9.910;2022-08-19T08:31:30;19.70;99.90
19878;DHT22;10101;52.204;9.910;2022-08-19T08:33:59;19.80;99.90
19878;DHT22;10101;52.204;9.910;2022-08-19T08:36:26;20.20;99.90
19878;DHT22;10101;52.204;9.910;2022-08-19T08:38:53;20.30;99.90
19878;DHT22;10101;52.204;9.910;2022-08-19T08:41:31;20.50;99.90
19878;DHT22;10101;52.204;9.910;2022-08-19T08:44:02;20.70;99.90
19878;DHT22;10101;52.204;9.910;2022-08-19T08:46:34;20.50;99.90
19878;DHT22;10101;52.204;9.910;2022-08-19T08:49:06;20.60;99.90
19878;DHT22;10101;52.204;9.910;2022-08-19T08:51:40;20.60;99.90
19878;DHT22;10101;52.204;9.910;2022-08-19T08:54:12;20.50;99.90
19878;DHT22;10101;52.204;9.910;2022-08-19T08:56:41;20.60;99.90
19878;DHT22;10101;52.204;9.910;2022-08-19T08:59:14;20.60;99.90
19878;DHT22;10101;52.204;9.910;2022-08-19T09:01:43;20.50;99.90
19878;DHT22;10101;52.204;9.910;2022-08-19T09:04:10;20.40;99.90
19878;DHT22;10101;52.204;9.910;2022-08-19T09:06:43;20.50;99.90
19878;DHT22;10101;52.204;9.910;2022-08-19T09:09:14;20.30;99.90
19878;DHT22;10101;52.204;9.910;2022-08-19T09:11:56;20.40;99.90
19878;DHT22;10101;52.204;9.910;2022-08-19T09:14:37;20.40;99.90
19878;DHT22;10101;52.204;9.910;2022-08-19T09:17:08;20.40;99.90
19878;DHT22;10101;52.204;9.910;2022-08-19T09:19:35;20.60;99.90
19878;DHT22;10101;52.204;9.910;2022-08-19T09:22:02;20.50;99.90
19878;DHT22;10101;52.204;9.910;2022-08-19T09:24:30;20.40;99.90
19878;DHT22;10101;52.204;9.910;2022-08-19T09:26:58;20.50;99.90
19878;DHT22;10101;52.204;9.910;2022-08-19T09:29:25;20.50;99.90
19878;DHT22;10101;52.204;9.910;2022-08-19T09:31:52;20.50;99.90
19878;DHT22;10101;52.204;9.910;2022-08-19T09:34:19;20.30;99.90
19878;DHT22;10101;52.204;9.910;2022-08-19T09:36:45;20.20;99.90
19878;DHT22;10101;52.204;9.910;2022-08-19T09:39:12;20.20;99.90
19878;DHT22;10101;52.204;9.910;2022-08-19T09:41:39;20.40;99.90
19878;DHT22;10101;52.204;9.910;2022-08-19T09:44:07;20.40;99.90
19878;DHT22;10101;52.204;9.910;2022-08-19T09:46:36;20.60;99.90
19878;DHT22;10101;52.204;9.910;2022-08-19T09:49:03;20.50;99.90
19878;DHT22;10101;52.204;9.910;2022-08-19T09:51:32;20.60;99.90
19878;DHT22;10101;52.204;9.910;2022-08-19T09:54:00;20.60;99.90
19878;DHT22;10101;52.204;9.910;2022-08-19T09:56:28;20.70;99.90
19878;DHT22;10101;52.204;9.910;2022-08-19T09:58:57;20.80;99.90
19878;DHT22;10101;52.204;9.910;2022-08-19T10:01:27;21.00;99.90
19878;DHT22;10101;52.204;9.910;2022-08-19T10:03:57;21.00;99.90
19878;DHT22;10101;52.204;9.910;2022-08-19T10:06:26;21.00;99.90
19878;DHT22;10101;52.204;9.910;2022-08-19T10:08:55;21.20;1.00
19878;DHT22;10101;52.204;9.910;2022-08-19T10:11:22;21.30;1.00
19878;DHT22;10101;52.204;9.910;2022-08-19T10:13:49;21.10;99.90
19878;DHT22;10101;52.204;9.910;2022-08-19T10:16:17;21.60;1.00
19878;DHT22;10101;52.204;9.910;2022-08-19T10:18:46;21.70;1.00
19878;DHT22;10101;52.204;9.910;2022-08-19T10:21:16;21.70;1.00
19878;DHT22;10101;52.204;9.910;2022-08-19T10:23:45;21.50;1.00
19878;DHT22;10101;52.204;9.910;2022-08-19T10:26:15;21.70;1.00
19878;DHT22;10101;52.204;9.910;2022-08-19T10:28:42;21.90;1.00
19878;DHT22;10101;52.204;9.910;2022-08-19T10:31:11;21.80;99.90
19878;DHT22;10101;52.204;9.910;2022-08-19T10:33:39;22.00;99.90
19878;DHT22;10101;52.204;9.910;2022-08-19T10:36:10;22.00;1.00
19878;DHT22;10101;52.204;9.910;2022-08-19T10:38:39;21.80;1.00
19878;DHT22;10101;52.204;9.910;2022-08-19T10:41:11;21.80;1.00
19878;DHT22;10101;52.204;9.910;2022-08-19T10:43:39;22.00;1.00
19878;DHT22;10101;52.204;9.910;2022-08-19T10:46:07;22.10;99.90
19878;DHT22;10101;52.204;9.910;2022-08-19T10:48:34;22.10;89.90
19878;DHT22;10101;52.204;9.910;2022-08-19T10:51:01;22.10;1.00
19878;DHT22;10101;52.204;9.910;2022-08-19T10:53:47;22.20;99.90
19878;DHT22;10101;52.204;9.910;2022-08-19T10:56:14;22.10;1.00
19878;DHT22;10101;52.204;9.910;2022-08-19T10:58:58;22.20;99.90
19878;DHT22;10101;52.204;9.910;2022-08-19T11:01:26;22.40;99.90
19878;DHT22;10101;52.204;9.910;2022-08-19T11:03:55;22.50;15.00
19878;DHT22;10101;52.204;9.910;2022-08-19T11:06:21;22.40;1.00
19878;DHT22;10101;52.204;9.910;2022-08-19T11:08:50;22.40;1.00
19878;DHT22;10101;52.204;9.910;2022-08-19T11:11:16;22.50;99.90
19878;DHT22;10101;52.204;9.910;2022-08-19T11:13:43;22.90;99.90
19878;DHT22;10101;52.204;9.910;2022-08-19T11:16:13;23.00;99.90
19878;DHT22;10101;52.204;9.910;2022-08-19T11:18:42;23.10;99.90
19878;DHT22;10101;52.204;9.910;2022-08-19T11:21:11;23.10;1.00
19878;DHT22;10101;52.204;9.910;2022-08-19T11:23:39;23.10;1.00
19878;DHT22;10101;52.204;9.910;2022-08-19T11:26:08;23.20;1.00
19878;DHT22;10101;52.204;9.910;2022-08-19T11:28:35;23.10;1.00
19878;DHT22;10101;52.204;9.910;2022-08-19T11:31:01;23.10;1.00
19878;DHT22;10101;52.204;9.910;2022-08-19T11:33:29;23.40;1.00
19878;DHT22;10101;52.204;9.910;2022-08-19T11:35:57;23.40;1.00
19878;DHT22;10101;52.204;9.910;2022-08-19T11:38:24;23.40;1.00
19878;DHT22;10101;52.204;9.910;2022-08-19T11:40:56;23.40;1.00
19878;DHT22;10101;52.204;9.910;2022-08-19T11:43:24;23.60;1.00
19878;DHT22;10101;52.204;9.910;2022-08-19T11:45:52;23.80;99.90
19878;DHT22;10101;52.204;9.910;2022-08-19T11:48:19;23.70;99.90
19878;DHT22;10101;52.204;9.910;2022-08-19T11:50:48;24.00;99.90
19878;DHT22;10101;52.204;9.910;2022-08-19T11:53:15;24.10;99.90
19878;DHT22;10101;52.204;9.910;2022-08-19T11:55:42;24.20;99.90
19878;DHT22;10101;52.204;9.910;2022-08-19T11:58:10;24.10;99.90
19878;DHT22;10101;52.204;9.910;2022-08-19T12:00:39;24.00;99.90
19878;DHT22;10101;52.204;9.910;2022-08-19T12:03:06;23.90;99.90
19878;DHT22;10101;52.204;9.910;2022-08-19T12:05:35;24.00;95.90
19878;DHT22;10101;52.204;9.910;2022-08-19T12:08:03;24.10;99.90
19878;DHT22;10101;52.204;9.910;2022-08-19T12:10:29;24.30;65.50
19878;DHT22;10101;52.204;9.910;2022-08-19T12:12:56;24.20;53.20
19878;DHT22;10101;52.204;9.910;2022-08-19T12:15:23;24.40;1.00
19878;DHT22;10101;52.204;9.910;2022-08-19T12:17:51;24.50;1.00
19878;DHT22;10101;52.204;9.910;2022-08-19T12:20:22;24.50;1.00
19878;DHT22;10101;52.204;9.910;2022-08-19T12:22:49;24.40;1.00
19878;DHT22;10101;52.204;9.910;2022-08-19T12:25:17;24.40;1.00
19878;DHT22;10101;52.204;9.910;2022-08-19T12:27:44;24.50;1.00
19878;DHT22;10101;52.204;9.910;2022-08-19T12:30:13;24.90;1.00
19878;DHT22;10101;52.204;9.910;2022-08-19T12:32:40;25.00;1.00
19878;DHT22;10101;52.204;9.910;2022-08-19T12:35:09;24.90;1.00
19878;DHT22;10101;52.204;9.910;2022-08-19T12:37:37;24.80;1.00
19878;DHT22;10101;52.204;9.910;2022-08-19T12:40:05;24.70;1.00
19878;DHT22;10101;52.204;9.910;2022-08-19T12:42:32;24.80;1.00
19878;DHT22;10101;52.204;9.910;2022-08-19T12:44:59;25.00;1.00
19878;DHT22;10101;52.204;9.910;2022-08-19T12:47:25;25.00;1.00
19878;DHT22;10101;52.204;9.910;2022-08-19T12:49:52;24.80;1.00
19878;DHT22;10101;52.204;9.910;2022-08-19T12:52:21;25.40;1.00
19878;DHT22;10101;52.204;9.910;2022-08-19T12:54:48;25.20;1.00
19878;DHT22;10101;52.204;9.910;2022-08-19T12:57:15;25.20;1.00
19878;DHT22;10101;52.204;9.910;2022-08-19T12:59:42;25.50;1.00
19878;DHT22;10101;52.204;9.910;2022-08-19T13:02:10;25.20;99.90
19878;DHT22;10101;52.204;9.910;2022-08-19T13:04:37;25.30;99.90
19878;DHT22;10101;52.204;9.910;2022-08-19T13:07:06;25.30;99.90
19878;DHT22;10101;52.204;9.910;2022-08-19T13:09:34;25.60;99.90
19878;DHT22;10101;52.204;9.910;2022-08-19T13:12:02;25.60;99.90
19878;DHT22;10101;52.204;9.910;2022-08-19T13:14:33;25.50;99.90
19878;DHT22;10101;52.204;9.910;2022-08-19T13:17:00;25.40;99.90
19878;DHT22;10101;52.204;9.910;2022-08-19T13:19:27;25.50;99.90
19878;DHT22;10101;52.204;9.910;2022-08-19T13:21:55;25.40;99.90
19878;DHT22;10101;52.204;9.910;2022-08-19T13:24:23;25.50;99.90
19878;DHT22;10101;52.204;9.910;2022-08-19T13:26:51;25.80;99.90
19878;DHT22;10101;52.204;9.910;2022-08-19T13:29:18;26.00;99.90
19878;DHT22;10101;52.204;9.910;2022-08-19T13:32:03;25.80;99.90
19878;DHT22;10101;52.204;9.910;2022-08-19T13:34:47;25.90;99.90
19878;DHT22;10101;52.204;9.910;2022-08-19T13:37:14;26.10;99.90
19878;DHT22;10101;52.204;9.910;2022-08-19T13:39:41;26.30;99.90
19878;DHT22;10101;52.204;9.910;2022-08-19T13:42:09;26.10;99.90
19878;DHT22;10101;52.204;9.910;2022-08-19T13:44:38;26.00;99.90
19878;DHT22;10101;52.204;9.910;2022-08-19T13:47:06;26.50;99.90
19878;DHT22;10101;52.204;9.910;2022-08-19T13:49:34;26.50;99.90
19878;DHT22;10101;52.204;9.910;2022-08-19T13:52:02;26.90;79.20
19878;DHT22;10101;52.204;9.910;2022-08-19T13:54:29;27.10;30.70
19878;DHT22;10101;52.204;9.910;2022-08-19T13:56:55;27.10;1.00
19878;DHT22;10101;52.204;9.910;2022-08-19T13:59:24;27.20;1.00
19878;DHT22;10101;52.204;9.910;2022-08-19T14:01:51;27.80;1.00
19878;DHT22;10101;52.204;9.910;2022-08-19T14:04:18;28.30;1.00
19878;DHT22;10101;52.204;9.910;2022-08-19T14:06:45;28.30;1.00
19878;DHT22;10101;52.204;9.910;2022-08-19T14:09:12;28.50;1.00
19878;DHT22;10101;52.204;9.910;2022-08-19T14:11:39;29.20;1.00
19878;DHT22;10101;52.204;9.910;2022-08-19T14:14:05;29.40;1.00
19878;DHT22;10101;52.204;9.910;2022-08-19T14:16:33;29.50;1.00
19878;DHT22;10101;52.204;9.910;2022-08-19T14:19:00;29.10;1.00
19878;DHT22;10101;52.204;9.910;2022-08-19T14:21:27;29.50;1.00
19878;DHT22;10101;52.204;9.910;2022-08-19T14:23:54;29.90;1.00
19878;DHT22;10101;52.204;9.910;2022-08-19T14:26:22;30.40;1.00
19878;DHT22;10101;52.204;9.910;2022-08-19T14:28:49;29.60;1.00
19878;DHT22;10101;52.204;9.910;2022-08-19T14:31:18;29.80;1.00
19878;DHT22;10101;52.204;9.910;2022-08-19T14:33:47;30.40;1.00
19878;DHT22;10101;52.204;9.910;2022-08-19T14:36:14;30.30;1.00
19878;DHT22;10101;52.204;9.910;2022-08-19T14:38:41;30.50;99.90
19878;DHT22;10101;52.204;9.910;2022-08-19T14:41:10;30.20;99.90
19878;DHT22;10101;52.204;9.910;2022-08-19T14:43:38;30.10;99.90
19878;DHT22;10101;52.204;9.910;2022-08-19T14:46:06;30.40;99.90
19878;DHT22;10101;52.204;9.910;2022-08-19T14:48:33;30.50;99.90
19878;DHT22;10101;52.204;9.910;2022-08-19T14:51:03;30.70;99.90
19878;DHT22;10101;52.204;9.910;2022-08-19T14:53:30;31.10;99.90
19878;DHT22;10101;52.204;9.910;2022-08-19T14:55:59;31.80;99.90
19878;DHT22;10101;52.204;9.910;2022-08-19T14:58:26;32.10;99.90
19878;DHT22;10101;52.204;9.910;2022-08-19T15:00:53;32.00;99.90
19878;DHT22;10101;52.204;9.910;2022-08-19T15:03:20;32.70;99.90
19878;DHT22;10101;52.204;9.910;2022-08-19T15:05:47;33.60;99.90
19878;DHT22;10101;52.204;9.910;2022-08-19T15:08:15;33.10;99.90
19878;DHT22;10101;52.204;9.910;2022-08-19T15:10:42;32.30;99.90
19878;DHT22;10101;52.204;9.910;2022-08-19T15:13:08;32.70;99.90
19878;DHT22;10101;52.204;9.910;2022-08-19T15:15:35;32.20;99.90
19878;DHT22;10101;52.204;9.910;2022-08-19T15:18:03;33.50;99.90
19878;DHT22;10101;52.204;9.910;2022-08-19T15:20:30;33.50;99.90
19878;DHT22;10101;52.204;9.910;2022-08-19T15:22:58;33.20;99.90
19878;DHT22;10101;52.204;9.910;2022-08-19T15:25:27;33.30;99.90
19878;DHT22;10101;52.204;9.910;2022-08-19T15:27:54;32.70;99.90
19878;DHT22;10101;52.204;9.910;2022-08-19T15:30:24;33.10;99.90
19878;DHT22;10101;52.204;9.910;2022-08-19T15:32:51;32.00;99.90
19878;DHT22;10101;52.204;9.910;2022-08-19T15:35:21;32.20;99.90
19878;DHT22;10101;52.204;9.910;2022-08-19T15:37:49;31.00;99.90
19878;DHT22;10101;52.204;9.910;2022-08-19T15:40:17;29.30;99.90